メインページ
METAR-TAF:

METAR-TAF

空港 :

カダラ空港

チタ, ロシア

緯度: 52-05N, 経度: 113-29E, 海抜: 685m

現時点の気象観測

当レポートは41分前の02:30(UTC)に作成
西/南西の風 16kt
気温 7°C
湿度 57%
気圧 1007 hPa
視程10km以上
高度3300ftの雲は散在している, 積乱雲.

METAR: UIAA 210230Z 25008MPS 9999 SCT033CB 07/M01 Q1007 R29/CLRD70 NOSIG RMK QFE697/0930

時間: 12:11 (03:11 UTC)

予報

当レポートは1時間11分前の02:00(UTC)に作成
予報は21日の 03時(UTC)から 22日の 03時(UTC)まで有効
西/北西の風 23kt、最大35ktの突風を伴う
視程10km以上
高度3300ftの千切れ雲あり, 積乱雲.
弱いにわか雨
21日の 03時(UTC)から 21日の 06時(UTC)まで一時的に
西/南西の風 12kt、最大23ktの突風を伴う
21日の 06時(UTC)から 21日の 15時(UTC)まで一時的に
視程: 1200m
高度1100ftの千切れ雲あり, 積乱雲.
にわか雨, 雪

TAF: UIAA 210200Z 2103/2203 30012G18MPS 9999 -SHRA BKN033CB TEMPO 2103/2106 24006G12MPS TEMPO 2106/2115 1200 SHRASN BKN011CB

4,000以上の空港の気象観測と天気予報(METAR報とTAF報)

利用可能な観測所は地図上に黄色い丸と赤い丸で示す。

丸の上にカーソルを重ねると観測所名を参照できる。

次にクリックすると気象観測と天気予報を参照できる。

マップの切り替え:黒色「×」印の緑ボタンをクリックして拡大、「-」印の緑ボタンをクリックして縮小、緑色の三角印をクリックして隣りの地図に切り替え


METAR-TAF: